Time;durP1;ratioP1;P1;durP2;ratioP2;P2;SDS_P1;SDS_P2;PMS_P1;PMS_P2;Temp;Humidity;BMP_temperature;BMP_pressure;BME280_temperature;BME280_humidity;BME280_pressure;Samples;Min_cycle;Max_cycle;Signal;HPM_P1;HPM_P2
2021/12/05 00:19:38;;;;;;;15.05;7.93;;;4.00;99.90;;;;;;5049718;28;20053;-77
2021/12/05 00:22:18;;;;;;;17.13;8.05;;;4.00;99.90;;;;;;5044868;28;20044;-78
2021/12/05 00:24:50;;;;;;;17.77;8.15;;;4.00;99.90;;;;;;5049448;28;20123;-77
2021/12/05 00:27:25;;;;;;;15.15;7.60;;;4.00;99.90;;;;;;5057458;28;20102;-79
2021/12/05 01:09:52;;;;;;;9.00;4.45;;;3.80;99.90;;;;;;5052359;28;20122;-79
2021/12/05 01:12:42;;;;;;;7.78;3.90;;;3.80;99.90;;;;;;5051474;28;20406;-79
2021/12/05 01:15:17;;;;;;;6.85;3.25;;;3.80;99.90;;;;;;5050464;28;20144;-78
2021/12/05 01:20:25;;;;;;;8.77;3.53;;;4.00;99.90;;;;;;5036514;28;20049;-79
2021/12/05 01:23:05;;;;;;;6.10;3.40;;;3.90;99.90;;;;;;5051268;28;20041;-78
2021/12/05 01:34:15;;;;;;;8.70;3.05;;;4.00;99.90;;;;;;5049708;28;20064;-78
2021/12/05 01:36:50;;;;;;;4.75;3.10;;;3.80;99.90;;;;;;5049639;28;20052;-78
2021/12/05 01:45:31;;;;;;;7.75;3.10;;;3.90;99.90;;;;;;5044176;28;20127;-78
2021/12/05 01:51:14;;;;;;;8.32;3.53;;;4.00;99.90;;;;;;5051068;28;20103;-78
2021/12/05 01:53:53;;;;;;;6.00;3.00;;;3.90;99.90;;;;;;5043968;28;20041;-78
2021/12/05 01:56:47;;;;;;;6.07;3.42;;;3.90;99.90;;;;;;5050574;28;20087;-78
2021/12/05 02:07:53;;;;;;;10.30;3.40;;;3.90;99.90;;;;;;5050250;28;20475;-78
2021/12/05 02:16:03;;;;;;;8.32;3.67;;;4.00;99.90;;;;;;5049599;28;20056;-78
2021/12/05 02:30:02;;;;;;;9.20;4.15;;;4.10;99.90;;;;;;5044007;28;20041;-78
2021/12/05 02:40:27;;;;;;;8.73;4.18;;;4.00;99.90;;;;;;5049100;28;20813;-78
2021/12/05 02:45:26;;;;;;;9.82;5.10;;;3.90;99.90;;;;;;5049053;28;20079;-77
2021/12/05 02:47:53;;;;;;;8.98;4.68;;;4.00;99.90;;;;;;5050092;28;20049;-78
2021/12/05 02:50:23;;;;;;;8.70;4.65;;;4.00;99.90;;;;;;5048833;28;20111;-78
2021/12/05 02:52:49;;;;;;;7.20;5.00;;;4.00;99.90;;;;;;5044276;28;20060;-77
2021/12/05 02:55:27;;;;;;;11.35;4.88;;;4.00;99.90;;;;;;5049338;28;20048;-78
2021/12/05 02:57:57;;;;;;;8.15;4.97;;;4.00;99.90;;;;;;5049518;28;20365;-78
2021/12/05 03:00:36;;;;;;;14.90;5.45;;;4.00;99.90;;;;;;5049250;28;20152;-77
2021/12/05 03:03:16;;;;;;;10.55;5.65;;;3.90;99.90;;;;;;5033596;28;20063;-78
2021/12/05 03:05:44;;;;;;;13.32;5.20;;;4.00;99.90;;;;;;5049046;28;20056;-78
2021/12/05 03:08:10;;;;;;;13.02;5.22;;;4.00;99.90;;;;;;5048645;28;20044;-78
2021/12/05 03:10:35;;;;;;;11.88;6.20;;;4.00;99.90;;;;;;5049473;28;20106;-77
2021/12/05 03:13:02;;;;;;;7.10;4.90;;;4.00;99.90;;;;;;5049973;28;20045;-78
2021/12/05 03:15:27;;;;;;;9.45;5.07;;;4.00;99.90;;;;;;5048934;28;20045;-78
2021/12/05 03:17:54;;;;;;;10.20;5.35;;;4.00;99.90;;;;;;5047504;28;20103;-78
2021/12/05 03:20:20;;;;;;;9.68;5.28;;;4.00;99.90;;;;;;5055295;28;20478;-77
2021/12/05 03:22:47;;;;;;;7.63;4.60;;;3.90;99.90;;;;;;5051615;28;20044;-78
2021/12/05 03:25:13;;;;;;;13.70;4.57;;;4.00;99.90;;;;;;5051447;28;20417;-77
2021/12/05 03:27:39;;;;;;;9.65;4.78;;;3.90;99.90;;;;;;5049789;28;20041;-78
2021/12/05 03:30:08;;;;;;;13.07;6.18;;;3.90;99.90;;;;;;5056908;28;20147;-77
2021/12/05 03:32:34;;;;;;;7.28;4.82;;;3.80;99.90;;;;;;5047400;28;20488;-78
2021/12/05 03:35:00;;;;;;;10.98;5.53;;;3.90;99.90;;;;;;5049068;28;20102;-78
2021/12/05 03:37:26;;;;;;;8.55;5.07;;;3.80;99.90;;;;;;5048758;28;20052;-77
2021/12/05 03:39:51;;;;;;;9.02;5.28;;;3.80;99.90;;;;;;5048680;28;20071;-78
2021/12/05 03:42:17;;;;;;;10.40;5.38;;;3.70;99.90;;;;;;5048383;28;20118;-78
2021/12/05 03:44:43;;;;;;;10.82;5.03;;;3.70;99.90;;;;;;5048408;28;20053;-78
2021/12/05 03:47:09;;;;;;;8.10;5.00;;;3.70;99.90;;;;;;5049256;28;20076;-78
2021/12/05 03:49:35;;;;;;;9.15;5.20;;;3.60;99.90;;;;;;5048013;28;20036;-78
2021/12/05 03:52:06;;;;;;;9.80;5.78;;;3.70;99.90;;;;;;5047919;28;20072;-78
2021/12/05 03:54:32;;;;;;;5.80;4.55;;;3.60;99.90;;;;;;5046952;28;21955;-78
2021/12/05 03:56:59;;;;;;;7.68;5.38;;;3.60;99.90;;;;;;5048304;28;20139;-78
2021/12/05 03:59:28;;;;;;;12.43;4.97;;;3.60;99.90;;;;;;5048470;28;20566;-78
2021/12/05 04:01:56;;;;;;;10.18;5.68;;;3.50;99.90;;;;;;5048116;28;20056;-78
2021/12/05 04:04:22;;;;;;;10.98;5.65;;;3.60;99.90;;;;;;5048493;28;20432;-78
2021/12/05 04:06:48;;;;;;;8.43;4.97;;;3.50;99.90;;;;;;5047452;28;20550;-78
2021/12/05 04:09:16;;;;;;;14.00;5.25;;;3.60;99.90;;;;;;5049663;28;20052;-78
2021/12/05 04:11:49;;;;;;;9.68;5.78;;;3.50;99.90;;;;;;5048867;28;20098;-78
2021/12/05 04:14:15;;;;;;;9.05;5.97;;;3.50;99.90;;;;;;5038502;28;20065;-77
2021/12/05 04:16:42;;;;;;;12.15;5.15;;;3.40;99.90;;;;;;5048306;28;20450;-77
2021/12/05 04:19:08;;;;;;;7.68;4.95;;;3.50;99.90;;;;;;5049411;28;20417;-78
2021/12/05 04:21:36;;;;;;;12.93;6.22;;;3.50;99.90;;;;;;5048246;28;20045;-78
2021/12/05 04:24:05;;;;;;;13.50;6.00;;;3.40;99.90;;;;;;5047984;28;20052;-77
2021/12/05 04:26:31;;;;;;;9.98;5.60;;;3.40;99.90;;;;;;5047590;28;20489;-78
2021/12/05 04:28:56;;;;;;;15.13;5.97;;;3.30;99.90;;;;;;5049196;28;20070;-77
2021/12/05 04:31:22;;;;;;;14.73;6.72;;;3.30;99.90;;;;;;5051655;28;20071;-77
2021/12/05 04:33:50;;;;;;;12.00;7.55;;;3.30;99.90;;;;;;5051627;28;20050;-78
2021/12/05 04:36:17;;;;;;;13.90;7.15;;;3.30;99.90;;;;;;5052979;28;20056;-78
2021/12/05 04:38:43;;;;;;;12.98;6.63;;;3.30;99.90;;;;;;5051443;28;20091;-77
2021/12/05 04:41:08;;;;;;;14.23;6.78;;;3.30;99.90;;;;;;5051438;28;20490;-78
2021/12/05 04:43:38;;;;;;;17.20;6.90;;;3.40;99.90;;;;;;5051953;28;20140;-78
2021/12/05 04:46:06;;;;;;;15.02;7.15;;;3.30;99.90;;;;;;5052099;28;20049;-78
2021/12/05 04:48:32;;;;;;;21.65;8.57;;;3.40;99.90;;;;;;5052843;28;20052;-77
2021/12/05 04:50:59;;;;;;;19.48;9.20;;;2.30;99.90;;;;;;5051585;28;20044;-77
2021/12/05 04:53:27;;;;;;;18.35;8.77;;;3.40;99.90;;;;;;5052611;28;20136;-78
2021/12/05 04:55:54;;;;;;;21.10;7.45;;;3.40;99.90;;;;;;5052160;28;20036;-78
2021/12/05 04:58:19;;;;;;;14.85;7.40;;;3.50;99.90;;;;;;5052924;28;20401;-78
2021/12/05 05:00:46;;;;;;;15.27;8.10;;;3.40;99.90;;;;;;5051334;28;20051;-78
2021/12/05 05:03:13;;;;;;;14.32;8.90;;;3.50;99.90;;;;;;5050119;28;20053;-77
2021/12/05 05:05:46;;;;;;;16.70;8.93;;;3.40;99.90;;;;;;5050794;28;20057;-78
2021/12/05 05:08:12;;;;;;;20.27;8.68;;;3.40;99.90;;;;;;5053051;28;20041;-78
2021/12/05 05:10:38;;;;;;;28.50;11.10;;;3.50;99.90;;;;;;5051652;28;20049;-78
2021/12/05 05:13:04;;;;;;;20.73;8.93;;;3.50;99.90;;;;;;5052478;28;20410;-78
2021/12/05 05:15:31;;;;;;;24.45;8.40;;;3.50;99.90;;;;;;5052173;28;20049;-78
2021/12/05 05:17:59;;;;;;;16.40;8.85;;;3.50;99.90;;;;;;5052092;28;20060;-78
2021/12/05 05:20:47;;;;;;;17.02;8.98;;;3.50;99.90;;;;;;5055685;28;20051;-78
2021/12/05 05:23:37;;;;;;;16.75;9.07;;;3.50;99.90;;;;;;5049549;28;20206;-78
2021/12/05 05:26:52;;;;;;;25.70;8.45;;;3.50;99.90;;;;;;5050680;28;20052;-78
2021/12/05 05:50:15;;;;;;;271.13;33.80;;;3.40;99.90;;;;;;5052427;28;20079;-78
2021/12/05 05:52:41;;;;;;;15.85;8.63;;;3.50;99.90;;;;;;5050636;28;20057;-78
2021/12/05 05:55:08;;;;;;;23.63;9.10;;;3.50;99.90;;;;;;5050709;28;20056;-78
2021/12/05 05:57:45;;;;;;;16.05;8.23;;;3.40;99.90;;;;;;5049386;28;20040;-78
2021/12/05 06:00:20;;;;;;;20.15;8.95;;;3.50;99.90;;;;;;5043759;28;20049;-78
2021/12/05 06:05:33;;;;;;;21.50;8.07;;;3.40;99.90;;;;;;5049992;28;20053;-77
2021/12/05 06:07:59;;;;;;;16.85;7.78;;;3.40;99.90;;;;;;5050648;28;20087;-78
2021/12/05 06:10:28;;;;;;;17.27;7.93;;;3.40;99.90;;;;;;5047205;28;20033;-78
2021/12/05 06:12:54;;;;;;;22.73;8.50;;;3.40;99.90;;;;;;5050280;28;20045;-77
2021/12/05 06:15:23;;;;;;;23.75;8.93;;;3.40;99.90;;;;;;5049843;28;20044;-77
2021/12/05 06:17:49;;;;;;;18.13;7.60;;;3.40;99.90;;;;;;5049352;28;20048;-77
2021/12/05 06:20:23;;;;;;;13.68;7.20;;;3.30;99.90;;;;;;5050237;28;20043;-78
2021/12/05 06:22:49;;;;;;;19.80;8.70;;;3.30;99.90;;;;;;5049002;28;20044;-77
2021/12/05 06:25:21;;;;;;;18.40;7.43;;;3.40;99.90;;;;;;5050004;28;20122;-78
2021/12/05 06:27:49;;;;;;;20.48;7.50;;;3.30;99.90;;;;;;5051819;28;20040;-78
2021/12/05 06:30:32;;;;;;;20.33;8.52;;;3.30;99.90;;;;;;5060706;28;20533;-78
2021/12/05 06:48:58;;;;;;;17.02;6.60;;;3.10;99.90;;;;;;5015149;28;20057;-77
2021/12/05 06:51:27;;;;;;;11.80;6.93;;;3.20;99.90;;;;;;5048951;28;20480;-77
2021/12/05 06:53:54;;;;;;;17.35;6.95;;;3.20;99.90;;;;;;5049738;28;20041;-77
2021/12/05 06:56:20;;;;;;;13.07;5.90;;;3.10;99.90;;;;;;5048729;28;20106;-77
2021/12/05 06:58:46;;;;;;;15.75;7.10;;;3.20;99.90;;;;;;5049820;28;20040;-77
2021/12/05 07:01:13;;;;;;;16.70;6.93;;;3.10;99.90;;;;;;5050216;28;20376;-77
2021/12/05 07:03:42;;;;;;;12.98;5.90;;;3.10;99.90;;;;;;5052048;28;20427;-77
2021/12/05 07:06:11;;;;;;;13.07;6.60;;;3.00;99.90;;;;;;5050854;28;20053;-78
2021/12/05 07:08:40;;;;;;;17.70;6.57;;;3.10;99.90;;;;;;5050412;28;20041;-77
2021/12/05 07:11:24;;;;;;;13.80;6.57;;;3.00;99.90;;;;;;5049091;28;20093;-77
2021/12/05 07:14:17;;;;;;;13.50;6.35;;;3.10;99.90;;;;;;5051590;28;20056;-77
2021/12/05 07:16:54;;;;;;;15.43;6.10;;;3.00;99.90;;;;;;5048883;28;20063;-78
2021/12/05 07:21:51;;;;;;;9.48;5.32;;;3.00;99.90;;;;;;5046822;28;20101;-77
2021/12/05 07:42:48;;;;;;;15.90;5.40;;;3.00;99.90;;;;;;5039100;28;20730;-78
2021/12/05 07:45:20;;;;;;;6.53;4.75;;;3.00;99.90;;;;;;5042316;28;20048;-78
2021/12/05 07:47:50;;;;;;;11.48;5.55;;;4.20;99.90;;;;;;5044951;28;20106;-78
2021/12/05 07:50:17;;;;;;;13.13;6.05;;;3.00;99.90;;;;;;5043923;28;20053;-77
2021/12/05 07:52:48;;;;;;;8.80;5.13;;;4.10;99.90;;;;;;5038198;28;20062;-78
2021/12/05 07:55:21;;;;;;;18.40;6.32;;;3.00;99.90;;;;;;5039975;28;20060;-77
2021/12/05 07:58:07;;;;;;;11.30;5.68;;;3.00;99.90;;;;;;5053051;28;20045;-77
2021/12/05 08:16:46;;;;;;;13.15;5.38;;;3.10;99.90;;;;;;5044659;28;20045;-77
2021/12/05 08:19:12;;;;;;;11.02;5.45;;;3.20;99.90;;;;;;5046666;28;20040;-78
2021/12/05 08:21:37;;;;;;;15.00;5.32;;;3.10;99.90;;;;;;5039061;28;20076;-79
2021/12/05 08:24:03;;;;;;;10.93;5.68;;;3.20;99.90;;;;;;5042685;28;20048;-77
2021/12/05 08:26:33;;;;;;;9.38;5.35;;;3.20;99.90;;;;;;5052154;28;20423;-78
2021/12/05 08:29:16;;;;;;;12.00;6.28;;;3.30;99.90;;;;;;5050685;28;20056;-69
2021/12/05 09:40:30;;;;;;;11.52;7.55;;;4.30;99.90;;;;;;5059746;28;20061;-72
2021/12/05 09:52:03;;;;;;;13.13;7.93;;;4.40;99.90;;;;;;5069580;28;22015;-71
2021/12/05 10:08:13;;;;;;;11.85;7.68;;;4.20;99.90;;;;;;5049403;28;20080;-72
2021/12/05 10:10:44;;;;;;;17.65;8.13;;;4.30;99.90;;;;;;5046185;28;20053;-73
2021/12/05 10:35:35;;;;;;;13.55;8.38;;;4.10;99.90;;;;;;5046654;28;20127;-69
2021/12/05 10:38:08;;;;;;;13.82;7.93;;;4.10;99.90;;;;;;5045890;28;20057;-69
2021/12/05 10:40:45;;;;;;;15.02;9.05;;;4.10;99.90;;;;;;5046572;28;20388;-69
2021/12/05 10:43:20;;;;;;;12.65;8.15;;;4.10;99.90;;;;;;5047276;28;20503;-69
2021/12/05 10:45:48;;;;;;;13.90;8.48;;;4.00;99.90;;;;;;5046706;28;20045;-69
2021/12/05 10:48:27;;;;;;;18.10;9.20;;;4.00;99.90;;;;;;5042193;28;20052;-69
2021/12/05 10:51:08;;;;;;;22.67;8.38;;;4.10;99.90;;;;;;5039578;28;20496;-69
2021/12/05 10:53:53;;;;;;;15.25;8.20;;;4.00;99.90;;;;;;5036142;28;20625;-69
2021/12/05 10:56:28;;;;;;;13.40;7.78;;;4.00;99.90;;;;;;5049973;28;20051;-69
2021/12/05 10:58:56;;;;;;;12.93;8.35;;;4.00;99.90;;;;;;5043329;28;20203;-69
2021/12/05 11:01:37;;;;;;;13.60;7.30;;;4.00;99.90;;;;;;5044195;28;20072;-69
2021/12/05 11:04:15;;;;;;;14.43;7.63;;;4.10;99.90;;;;;;5041250;28;20067;-69
2021/12/05 11:06:40;;;;;;;19.92;8.48;;;4.10;99.90;;;;;;5046422;28;20107;-70
2021/12/05 11:09:15;;;;;;;18.27;9.23;;;4.10;99.90;;;;;;5042461;28;20170;-69
2021/12/05 11:11:44;;;;;;;17.75;8.43;;;4.10;99.90;;;;;;5043428;28;20077;-69
2021/12/05 11:14:15;;;;;;;17.38;8.25;;;4.10;99.90;;;;;;5046905;28;20052;-70
2021/12/05 11:16:42;;;;;;;15.25;7.90;;;4.10;99.90;;;;;;5046458;28;20092;-71
2021/12/05 11:19:12;;;;;;;17.35;8.80;;;4.10;99.90;;;;;;5046357;28;20045;-70
2021/12/05 11:21:46;;;;;;;17.55;9.00;;;4.10;99.90;;;;;;5045895;28;20056;-70
2021/12/05 11:24:25;;;;;;;17.38;8.40;;;4.20;99.90;;;;;;5045163;28;20399;-70
2021/12/05 11:27:09;;;;;;;15.90;8.90;;;4.20;99.90;;;;;;5048872;28;20080;-70
2021/12/05 11:29:42;;;;;;;13.98;8.70;;;4.20;99.90;;;;;;5033237;28;20049;-71
2021/12/05 11:32:11;;;;;;;12.57;8.75;;;4.10;99.90;;;;;;5029400;28;20080;-70
2021/12/05 11:34:37;;;;;;;16.13;8.20;;;4.10;99.90;;;;;;5048134;28;20098;-71
2021/12/05 11:37:03;;;;;;;14.48;7.93;;;4.10;99.90;;;;;;5069976;28;20044;-70
2021/12/05 11:39:28;;;;;;;13.07;8.30;;;4.20;99.90;;;;;;5062530;28;20742;-69
2021/12/05 11:41:56;;;;;;;13.25;7.97;;;4.20;99.90;;;;;;5037996;28;20558;-69
2021/12/05 11:44:23;;;;;;;15.25;7.55;;;4.30;99.90;;;;;;5028601;28;20107;-69
2021/12/05 11:46:50;;;;;;;14.65;8.15;;;4.30;99.90;;;;;;5040515;28;20056;-69
2021/12/05 11:49:22;;;;;;;18.70;9.35;;;4.30;99.90;;;;;;5046403;28;20056;-69
2021/12/05 11:51:55;;;;;;;15.23;7.82;;;4.40;99.90;;;;;;5048657;28;20057;-69
2021/12/05 11:54:37;;;;;;;20.35;8.85;;;4.40;99.90;;;;;;5045526;28;20046;-69
2021/12/05 11:57:08;;;;;;;13.70;9.00;;;4.40;99.90;;;;;;5041214;28;20045;-69
2021/12/05 11:59:37;;;;;;;17.60;8.80;;;4.50;99.90;;;;;;5041804;28;20518;-70
2021/12/05 12:02:25;;;;;;;14.75;7.90;;;4.60;99.90;;;;;;5044697;28;20069;-69
2021/12/05 12:04:56;;;;;;;16.35;7.80;;;4.60;99.90;;;;;;5027960;28;20064;-69
2021/12/05 12:07:40;;;;;;;12.82;8.07;;;4.60;99.90;;;;;;5047721;28;20060;-69
2021/12/05 12:10:17;;;;;;;14.68;7.68;;;4.70;99.90;;;;;;5048904;28;20466;-69
2021/12/05 12:12:46;;;;;;;13.48;8.15;;;4.70;99.90;;;;;;5046823;28;20048;-69
2021/12/05 12:15:14;;;;;;;10.90;7.70;;;4.70;99.90;;;;;;5050102;28;20395;-69
2021/12/05 12:17:41;;;;;;;10.68;7.40;;;4.70;99.90;;;;;;5049123;28;20037;-69
2021/12/05 12:20:11;;;;;;;15.55;7.85;;;4.80;99.90;;;;;;5069528;28;20048;-69
2021/12/05 12:22:37;;;;;;;12.00;7.05;;;4.90;99.90;;;;;;5069780;28;20123;-69
2021/12/05 12:25:08;;;;;;;10.77;6.53;;;4.90;99.90;;;;;;5060383;28;20049;-70
2021/12/05 12:27:34;;;;;;;9.27;7.05;;;5.00;99.90;;;;;;5047944;28;20049;-70
2021/12/05 12:30:01;;;;;;;17.00;7.65;;;5.10;99.90;;;;;;5048761;28;20174;-68
2021/12/05 12:32:34;;;;;;;22.10;7.40;;;5.00;99.90;;;;;;5048603;28;20056;-68
2021/12/05 12:35:19;;;;;;;9.57;6.68;;;5.10;99.90;;;;;;5048035;28;20128;-68
2021/12/05 12:38:07;;;;;;;14.38;6.97;;;5.20;99.90;;;;;;5048493;28;20136;-69
2021/12/05 12:40:45;;;;;;;16.25;6.90;;;5.10;99.90;;;;;;5047740;28;20064;-68
2021/12/05 12:43:46;;;;;;;12.45;7.63;;;5.10;99.90;;;;;;5060288;28;20051;-68
2021/12/05 12:46:33;;;;;;;13.52;7.53;;;5.10;99.90;;;;;;5068534;28;20040;-68
2021/12/05 12:49:07;;;;;;;11.65;7.10;;;5.10;99.90;;;;;;5069427;28;20132;-68
2021/12/05 12:51:36;;;;;;;12.75;6.85;;;5.00;99.90;;;;;;5069332;28;20045;-68
2021/12/05 12:54:08;;;;;;;15.27;7.55;;;5.00;99.90;;;;;;5071039;28;20048;-67
2021/12/05 12:56:33;;;;;;;23.00;7.40;;;5.00;99.90;;;;;;5032960;28;20072;-66
2021/12/05 12:59:08;;;;;;;8.50;6.72;;;4.90;99.90;;;;;;5031402;28;20160;-66
2021/12/05 13:04:33;;;;;;;11.23;8.43;;;4.90;99.90;;;;;;5031024;28;20511;-66
2021/12/05 13:10:05;;;;;;;14.00;8.20;;;4.90;99.90;;;;;;5051049;28;20048;-66
2021/12/05 13:12:40;;;;;;;12.93;6.80;;;5.00;99.90;;;;;;5050389;28;20060;-66
2021/12/05 13:15:17;;;;;;;12.75;7.68;;;4.90;99.90;;;;;;5051231;28;20084;-66
2021/12/05 13:17:50;;;;;;;10.75;6.50;;;5.00;99.90;;;;;;5049417;28;20102;-66
2021/12/05 13:20:20;;;;;;;15.05;7.57;;;5.00;99.90;;;;;;5052024;28;20099;-66
2021/12/05 13:23:00;;;;;;;10.95;6.95;;;4.90;99.90;;;;;;5049554;28;20056;-66
2021/12/05 13:25:26;;;;;;;12.02;7.97;;;5.00;99.90;;;;;;5036454;28;20092;-66
2021/12/05 13:27:52;;;;;;;12.00;6.53;;;4.90;99.90;;;;;;5059769;28;20049;-66
2021/12/05 13:30:29;;;;;;;10.60;6.65;;;4.90;99.90;;;;;;5050475;28;20106;-67
2021/12/05 13:33:19;;;;;;;11.32;7.13;;;5.00;99.90;;;;;;5056925;28;20065;-67
2021/12/05 13:35:45;;;;;;;16.33;7.00;;;5.00;99.90;;;;;;5050945;28;20060;-67
2021/12/05 13:38:41;;;;;;;10.75;7.60;;;5.00;99.90;;;;;;5059666;28;20125;-66
2021/12/05 13:41:17;;;;;;;12.07;7.80;;;5.00;99.90;;;;;;5070050;28;20147;-66
2021/12/05 13:43:58;;;;;;;19.17;7.00;;;5.10;99.90;;;;;;5064972;28;20036;-66
2021/12/05 13:46:32;;;;;;;17.27;7.93;;;5.00;99.90;;;;;;5064882;28;20048;-66
2021/12/05 13:49:00;;;;;;;13.23;7.80;;;5.00;99.90;;;;;;5048353;28;20052;-66
2021/12/05 13:51:26;;;;;;;10.98;7.30;;;5.00;99.90;;;;;;5069221;28;20061;-66
2021/12/05 13:53:55;;;;;;;12.27;7.32;;;5.00;99.90;;;;;;5065391;28;20064;-66
2021/12/05 13:56:26;;;;;;;11.75;6.68;;;5.10;99.90;;;;;;5060594;28;20059;-66
2021/12/05 13:59:05;;;;;;;10.52;6.47;;;5.00;99.90;;;;;;5071036;28;20544;-66
2021/12/05 14:01:35;;;;;;;11.80;7.40;;;5.00;99.90;;;;;;5070506;28;20518;-66
2021/12/05 14:04:17;;;;;;;9.82;5.85;;;5.00;99.90;;;;;;5071141;28;20139;-66
2021/12/05 14:06:54;;;;;;;9.82;6.82;;;5.00;99.90;;;;;;5071939;28;20781;-66
2021/12/05 14:09:25;;;;;;;14.05;8.27;;;5.00;99.90;;;;;;5054336;28;20396;-66
2021/12/05 14:12:07;;;;;;;13.93;8.05;;;5.00;99.90;;;;;;5051165;28;20057;-66
2021/12/05 14:14:41;;;;;;;18.08;8.95;;;5.00;99.90;;;;;;5061682;28;20044;-66
2021/12/05 14:17:18;;;;;;;15.30;9.15;;;5.00;99.90;;;;;;5053317;28;20399;-66
2021/12/05 14:19:48;;;;;;;15.00;9.27;;;4.90;99.90;;;;;;5067881;28;20056;-66
2021/12/05 14:22:18;;;;;;;19.25;9.80;;;4.90;99.90;;;;;;5070643;28;20439;-66
2021/12/05 14:24:47;;;;;;;11.80;8.68;;;4.90;99.90;;;;;;5052199;28;20080;-66
2021/12/05 14:27:17;;;;;;;11.00;7.75;;;4.90;99.90;;;;;;5050887;28;20049;-67
2021/12/05 14:29:43;;;;;;;12.60;7.05;;;4.90;99.90;;;;;;5051299;28;20044;-66
2021/12/05 14:32:22;;;;;;;9.65;7.15;;;4.90;99.90;;;;;;5050135;28;20124;-66
2021/12/05 14:34:53;;;;;;;9.73;6.60;;;4.90;99.90;;;;;;5051386;28;20044;-66
2021/12/05 14:37:21;;;;;;;9.85;6.70;;;4.80;99.90;;;;;;5062054;28;20040;-66
2021/12/05 14:39:48;;;;;;;9.52;6.63;;;4.90;99.90;;;;;;5069120;28;20136;-66
2021/12/05 14:42:17;;;;;;;11.43;7.63;;;4.80;99.90;;;;;;5071322;28;20049;-67
2021/12/05 14:44:47;;;;;;;24.20;10.35;;;4.80;99.90;;;;;;5062743;28;20048;-67
2021/12/05 14:47:24;;;;;;;13.00;8.57;;;4.90;99.90;;;;;;5050620;28;20060;-66
2021/12/05 14:49:56;;;;;;;15.77;8.50;;;4.90;99.90;;;;;;5051648;28;20052;-66
2021/12/05 14:52:25;;;;;;;11.95;7.20;;;4.80;99.90;;;;;;5054582;28;20174;-66
2021/12/05 14:54:52;;;;;;;12.43;7.57;;;4.80;99.90;;;;;;5059331;28;20045;-66
2021/12/05 14:57:21;;;;;;;14.73;7.93;;;4.90;99.90;;;;;;5048466;28;20487;-66
2021/12/05 14:59:50;;;;;;;11.07;7.13;;;4.90;99.90;;;;;;5044145;28;20480;-66
2021/12/05 15:02:18;;;;;;;13.88;8.27;;;4.80;99.90;;;;;;5040757;28;20132;-66
2021/12/05 15:04:50;;;;;;;12.85;8.50;;;4.80;99.90;;;;;;5042566;28;20045;-66
2021/12/05 15:07:24;;;;;;;15.75;6.88;;;4.80;99.90;;;;;;5042163;28;20049;-67
2021/12/05 15:09:53;;;;;;;12.27;7.78;;;4.80;99.90;;;;;;5046982;28;20053;-67
2021/12/05 15:12:23;;;;;;;13.40;6.90;;;4.80;99.90;;;;;;5045971;28;20131;-67
2021/12/05 15:14:52;;;;;;;11.40;7.70;;;4.80;99.90;;;;;;5049183;28;20094;-68
2021/12/05 15:17:32;;;;;;;14.18;7.28;;;4.70;99.90;;;;;;5050854;28;20084;-68
2021/12/05 15:20:15;;;;;;;12.88;7.68;;;4.70;99.90;;;;;;5051693;28;20045;-68
2021/12/05 15:22:41;;;;;;;;;;;4.70;99.90;;;;;;5051135;28;20076;-68
2021/12/05 15:25:14;;;;;;;18.40;8.65;;;4.70;99.90;;;;;;5051135;28;19932;-68
2021/12/05 15:27:41;;;;;;;12.18;7.78;;;4.70;99.90;;;;;;5048043;28;20462;-68
2021/12/05 15:30:27;;;;;;;13.75;9.05;;;4.70;99.90;;;;;;5065477;28;20475;-68
2021/12/05 15:32:59;;;;;;;14.40;8.18;;;4.70;99.90;;;;;;5027278;28;20061;-68
2021/12/05 15:35:25;;;;;;;26.25;9.55;;;4.60;99.90;;;;;;5028454;28;20056;-68
2021/12/05 15:38:14;;;;;;;12.77;8.40;;;4.60;99.90;;;;;;5027710;28;20057;-68
2021/12/05 15:40:43;;;;;;;12.75;8.32;;;4.60;99.90;;;;;;5028392;28;20064;-68
2021/12/05 15:43:12;;;;;;;13.23;8.40;;;4.60;99.90;;;;;;5027428;28;20057;-68
2021/12/05 15:45:40;;;;;;;13.77;8.52;;;4.60;99.90;;;;;;5028229;28;20369;-68
2021/12/05 15:48:05;;;;;;;16.42;8.52;;;4.60;99.90;;;;;;5028552;28;20049;-68
2021/12/05 15:50:37;;;;;;;18.17;10.20;;;4.50;99.90;;;;;;5027578;28;20052;-69
2021/12/05 15:53:10;;;;;;;16.50;8.13;;;4.50;99.90;;;;;;5027924;28;20084;-68
2021/12/05 15:55:48;;;;;;;12.65;8.75;;;4.50;99.90;;;;;;5029108;28;20050;-68
2021/12/05 15:58:30;;;;;;;11.73;8.45;;;4.40;99.90;;;;;;5029395;28;20060;-68
2021/12/05 16:01:12;;;;;;;15.30;9.95;;;4.50;99.90;;;;;;5028356;28;20049;-68
2021/12/05 16:03:53;;;;;;;20.02;9.15;;;4.40;99.90;;;;;;5029142;28;20041;-68
2021/12/05 16:06:29;;;;;;;16.63;10.00;;;4.40;99.90;;;;;;5043550;28;20047;-68
2021/12/05 16:08:54;;;;;;;13.25;9.45;;;4.40;99.90;;;;;;5034537;28;20051;-68
2021/12/05 16:11:21;;;;;;;16.60;10.32;;;4.30;99.90;;;;;;5038838;28;20153;-68
2021/12/05 16:13:52;;;;;;;20.60;11.30;;;4.30;99.90;;;;;;5033624;28;20099;-68
2021/12/05 16:16:24;;;;;;;15.02;9.63;;;4.30;99.90;;;;;;5047429;28;20041;-68
2021/12/05 16:18:53;;;;;;;17.20;10.40;;;4.30;99.90;;;;;;5047159;28;20061;-68
2021/12/05 16:21:34;;;;;;;20.02;10.98;;;4.30;99.90;;;;;;5048355;28;20052;-69
2021/12/05 16:24:13;;;;;;;19.27;11.07;;;4.30;99.90;;;;;;5047102;28;20455;-75
2021/12/05 16:26:40;;;;;;;19.60;10.60;;;4.30;99.90;;;;;;5048469;28;20064;-69
2021/12/05 16:29:18;;;;;;;17.25;10.18;;;4.30;99.90;;;;;;5048972;28;20053;-69
2021/12/05 16:31:50;;;;;;;19.60;11.93;;;4.20;99.90;;;;;;5050915;28;20377;-69
2021/12/05 16:34:29;;;;;;;15.77;10.57;;;4.20;99.90;;;;;;5049546;28;20052;-69
2021/12/05 16:36:58;;;;;;;19.33;11.38;;;4.20;99.90;;;;;;5052611;28;20439;-69
2021/12/05 16:39:32;;;;;;;20.13;11.75;;;4.20;99.90;;;;;;5063085;28;20040;-67
2021/12/05 16:42:08;;;;;;;22.20;11.20;;;4.20;99.90;;;;;;5071309;28;20048;-67
2021/12/05 16:44:37;;;;;;;18.35;12.48;;;4.20;99.90;;;;;;5064513;28;20040;-69
2021/12/05 16:47:08;;;;;;;18.75;10.80;;;4.20;99.90;;;;;;5039566;28;20528;-68
2021/12/05 16:49:37;;;;;;;18.35;10.82;;;4.10;99.90;;;;;;5031491;28;20045;-68
2021/12/05 16:52:10;;;;;;;16.73;11.65;;;4.10;99.90;;;;;;5031225;28;20064;-68
2021/12/05 16:54:50;;;;;;;19.42;10.50;;;4.10;99.90;;;;;;5046271;28;20434;-68
2021/12/05 16:57:22;;;;;;;16.25;11.25;;;4.10;99.90;;;;;;5044610;28;20056;-68
2021/12/05 17:00:00;;;;;;;18.83;12.52;;;4.10;99.90;;;;;;5035480;28;20061;-68
2021/12/05 17:02:31;;;;;;;15.45;9.68;;;4.10;99.90;;;;;;5047753;28;20435;-68
2021/12/05 17:05:16;;;;;;;16.02;10.20;;;4.10;99.90;;;;;;5051990;28;20041;-68
2021/12/05 17:07:44;;;;;;;14.05;10.48;;;4.20;99.90;;;;;;5049129;28;20045;-68
2021/12/05 17:10:33;;;;;;;19.13;12.40;;;4.10;99.90;;;;;;5045986;28;20159;-68
2021/12/05 17:13:10;;;;;;;19.85;12.32;;;4.10;99.90;;;;;;5049467;28;20545;-68
2021/12/05 17:15:59;;;;;;;20.25;13.10;;;4.10;99.90;;;;;;5043755;28;20080;-68
2021/12/05 17:18:28;;;;;;;15.13;11.32;;;4.00;99.90;;;;;;5042596;28;20057;-68
2021/12/05 17:21:05;;;;;;;23.23;13.23;;;4.00;99.90;;;;;;5051905;28;20431;-68
2021/12/05 17:23:36;;;;;;;16.42;11.75;;;4.00;99.90;;;;;;5043280;28;20354;-68
2021/12/05 17:26:28;;;;;;;17.80;10.90;;;4.00;99.90;;;;;;5047452;28;20123;-68
2021/12/05 17:29:07;;;;;;;18.17;11.70;;;4.00;99.90;;;;;;5032538;28;20081;-68
2021/12/05 17:31:38;;;;;;;18.48;11.20;;;3.90;99.90;;;;;;5030645;28;20055;-68
2021/12/05 17:34:10;;;;;;;16.27;10.95;;;3.90;99.90;;;;;;5040448;28;20507;-68
2021/12/05 17:36:41;;;;;;;18.93;12.40;;;3.80;99.90;;;;;;5050838;28;20131;-68
2021/12/05 17:39:11;;;;;;;18.65;12.45;;;3.80;99.90;;;;;;5066565;28;20132;-68
2021/12/05 17:41:38;;;;;;;22.60;16.33;;;3.80;99.90;;;;;;5070161;28;20044;-69
2021/12/05 17:44:04;;;;;;;26.92;17.08;;;3.80;99.90;;;;;;5069345;28;20066;-67
2021/12/05 17:46:35;;;;;;;24.33;15.82;;;3.80;99.90;;;;;;5042846;28;20134;-68
2021/12/05 17:49:03;;;;;;;19.33;12.60;;;3.70;99.90;;;;;;5045937;28;20446;-67
2021/12/05 17:51:36;;;;;;;22.75;13.35;;;3.80;99.90;;;;;;5049682;28;20052;-68
2021/12/05 17:54:07;;;;;;;25.50;15.35;;;3.80;99.90;;;;;;5050729;28;20107;-67
2021/12/05 17:56:39;;;;;;;21.73;14.32;;;3.80;99.90;;;;;;5049773;28;20056;-67
2021/12/05 18:04:53;;;;;;;17.63;12.38;;;3.70;99.90;;;;;;5038562;28;20491;-67
2021/12/05 18:07:20;;;;;;;22.13;12.88;;;3.60;99.90;;;;;;5050293;28;20040;-67
2021/12/05 18:09:46;;;;;;;18.88;13.45;;;3.60;99.90;;;;;;5055793;28;20044;-68
2021/12/05 18:12:19;;;;;;;18.60;12.60;;;3.60;99.90;;;;;;5050744;28;20056;-67
2021/12/05 18:14:46;;;;;;;17.38;12.10;;;3.60;99.90;;;;;;5042756;28;20037;-67
2021/12/05 18:17:12;;;;;;;21.83;14.18;;;3.50;99.90;;;;;;5049341;28;20106;-67
2021/12/05 18:19:38;;;;;;;16.33;11.75;;;3.50;99.90;;;;;;5044114;28;20102;-67
2021/12/05 18:22:04;;;;;;;20.33;13.45;;;3.60;99.90;;;;;;5044290;28;20136;-67
2021/12/05 18:24:31;;;;;;;18.02;12.80;;;3.50;99.90;;;;;;5046319;28;20054;-69
2021/12/05 18:26:57;;;;;;;21.38;12.52;;;3.50;99.90;;;;;;5049818;28;20056;-68
2021/12/05 18:29:23;;;;;;;17.38;12.40;;;3.50;99.90;;;;;;5034306;28;20045;-68